Time;durP1;ratioP1;P1;durP2;ratioP2;P2;SDS_P1;SDS_P2;PMS_P1;PMS_P2;Temp;Humidity;BMP_temperature;BMP_pressure;BME280_temperature;BME280_humidity;BME280_pressure;Samples;Min_cycle;Max_cycle;Signal;HPM_P1;HPM_P2
2021/03/23 00:02:01;;;;;;;0.80;0.80;;;;;;;3.34;71.77;97639.63;299395;304;63009;-57
2021/03/23 00:07:02;;;;;;;0.80;0.80;;;;;;;3.27;71.51;97638.87;299395;251;63005;-59
2021/03/23 00:12:04;;;;;;;0.70;0.70;;;;;;;3.18;72.02;97647.47;299395;297;63009;-56
2021/03/23 00:17:06;;;;;;;0.80;0.80;;;;;;;3.19;71.99;97644.56;299395;196;63004;-58
2021/03/23 00:22:10;;;;;;;0.80;0.80;;;;;;;3.08;72.94;97640.00;299395;265;63009;-57
2021/03/23 00:27:13;;;;;;;0.80;0.80;;;;;;;3.05;72.92;97639.63;299417;287;63005;-57
2021/03/23 00:32:14;;;;;;;2.08;2.05;;;;;;;3.25;72.25;97640.16;299395;202;63009;-56
2021/03/23 00:37:15;;;;;;;0.70;0.70;;;;;;;3.04;72.74;97646.84;299395;280;63013;-57
2021/03/23 00:42:17;;;;;;;0.70;0.70;;;;;;;3.09;73.15;97646.19;299395;223;63009;-57
2021/03/23 00:47:18;;;;;;;0.80;0.80;;;;;;;3.05;73.18;97643.13;299395;274;63004;-56
2021/03/23 00:52:19;;;;;;;0.80;0.80;;;;;;;3.06;73.17;97642.06;299395;202;63009;-57
2021/03/23 00:57:20;;;;;;;0.80;0.80;;;;;;;2.86;74.69;97646.84;299395;314;63005;-58
2021/03/23 01:02:22;;;;;;;0.80;0.80;;;;;;;2.98;73.92;97637.03;299395;308;63010;-57
2021/03/23 01:07:23;;;;;;;0.77;0.77;;;;;;;3.08;73.67;97637.31;299395;211;63005;-54
2021/03/23 01:12:25;;;;;;;0.80;0.80;;;;;;;2.90;74.86;97643.50;299394;272;64014;-58
2021/03/23 01:17:25;;;;;;;0.70;0.70;;;;;;;2.81;75.39;97633.31;299395;255;63004;-57
2021/03/23 01:22:26;;;;;;;0.80;0.80;;;;;;;3.01;74.39;97639.25;299395;196;63009;-57
2021/03/23 01:27:29;;;;;;;0.80;0.80;;;;;;;2.88;74.94;97640.22;299395;214;63005;-57
2021/03/23 01:32:30;;;;;;;0.70;0.70;;;;;;;2.80;75.54;97637.03;299395;215;63009;-57
2021/03/23 01:37:31;;;;;;;0.70;0.70;;;;;;;2.83;75.63;97647.31;299395;227;63005;-57
2021/03/23 01:42:47;;;;;;;0.80;0.80;;;;;;;2.91;75.35;97644.31;299395;226;63021;-57
2021/03/23 01:47:50;;;;;;;0.80;0.80;;;;;;;2.79;75.98;97640.75;299395;213;63004;-57
2021/03/23 01:53:02;;;;;;;0.80;0.80;;;;;;;2.69;76.86;97634.09;299395;202;63009;-57
2021/03/23 01:58:05;;;;;;;0.80;0.80;;;;;;;2.75;76.38;97629.69;299395;299;63005;-57
2021/03/23 02:03:07;;;;;;;0.70;0.70;;;;;;;2.97;75.50;97632.72;299395;212;63008;-57
2021/03/23 02:08:09;;;;;;;0.80;0.80;;;;;;;2.76;76.40;97635.88;299395;202;63004;-57
2021/03/23 02:13:11;;;;;;;0.70;0.70;;;;;;;2.84;76.43;97628.31;299395;255;63009;-57
2021/03/23 02:18:21;;;;;;;0.80;0.80;;;;;;;2.80;76.87;97631.66;299395;270;63004;-57
2021/03/23 02:23:27;;;;;;;0.80;0.80;;;;;;;2.75;77.17;97628.88;299395;292;63009;-58
2021/03/23 02:28:28;;;;;;;1.05;1.05;;;;;;;2.70;77.53;97629.56;299395;202;63005;-57
2021/03/23 02:33:29;;;;;;;0.75;0.75;;;;;;;2.95;76.29;97632.13;299395;275;63008;-57
2021/03/23 02:38:30;;;;;;;0.90;0.90;;;;;;;2.95;76.10;97630.25;299395;203;63004;-57
2021/03/23 02:43:31;;;;;;;0.80;0.80;;;;;;;3.06;75.97;97626.00;299395;202;63009;-57
2021/03/23 02:48:32;;;;;;;0.90;0.90;;;;;;;2.89;77.07;97630.34;299395;212;63005;-58
2021/03/23 02:53:34;;;;;;;0.80;0.80;;;;;;;2.80;77.46;97623.63;299395;199;63009;-57
2021/03/23 02:58:35;;;;;;;0.80;0.80;;;;;;;3.01;76.25;97615.13;299395;198;63005;-57
2021/03/23 03:03:37;;;;;;;0.70;0.70;;;;;;;3.02;76.06;97614.09;299395;204;63009;-57
2021/03/23 03:08:39;;;;;;;0.70;0.70;;;;;;;2.84;76.49;97619.47;299395;262;63004;-58
2021/03/23 03:13:41;;;;;;;0.80;0.80;;;;;;;2.80;77.25;97615.59;299395;198;63009;-58
2021/03/23 03:18:43;;;;;;;0.70;0.70;;;;;;;2.75;77.29;97610.13;299395;288;63005;-58
2021/03/23 03:23:44;;;;;;;0.80;0.80;;;;;;;2.68;77.89;97607.50;299395;214;63015;-58
2021/03/23 03:28:49;;;;;;;0.80;0.80;;;;;;;2.71;77.64;97614.28;299395;199;63005;-58
2021/03/23 03:33:52;;;;;;;0.70;0.70;;;;;;;2.66;78.10;97613.09;299395;213;63009;-57
2021/03/23 03:38:54;;;;;;;0.70;0.70;;;;;;;2.62;78.25;97614.59;299395;273;63004;-58
2021/03/23 03:43:56;;;;;;;0.70;0.70;;;;;;;2.54;78.71;97614.87;299395;246;63009;-57
2021/03/23 03:48:56;;;;;;;0.80;0.80;;;;;;;2.52;79.19;97608.94;299395;346;63005;-58
2021/03/23 03:53:58;;;;;;;0.70;0.70;;;;;;;2.52;79.08;97613.47;299395;220;63009;-57
2021/03/23 03:58:59;;;;;;;0.70;0.70;;;;;;;2.52;78.96;97618.81;299395;196;63005;-58
2021/03/23 04:04:00;;;;;;;0.70;0.70;;;;;;;2.51;79.27;97623.37;299395;216;63009;-58
2021/03/23 04:09:04;;;;;;;0.70;0.70;;;;;;;2.45;79.58;97615.41;299395;206;63004;-57
2021/03/23 04:14:05;;;;;;;0.70;0.70;;;;;;;2.43;79.43;97614.81;299417;251;63019;-58
2021/03/23 04:19:06;;;;;;;0.70;0.70;;;;;;;2.35;80.18;97623.97;299395;218;63005;-58
2021/03/23 04:24:08;;;;;;;0.70;0.70;;;;;;;2.35;80.10;97640.88;299395;225;63009;-57
2021/03/23 04:29:10;;;;;;;0.70;0.70;;;;;;;2.35;80.01;97629.34;299395;202;63005;-57
2021/03/23 04:34:14;;;;;;;0.80;0.80;;;;;;;2.38;79.79;97638.78;299395;214;63009;-57
2021/03/23 04:39:16;;;;;;;0.70;0.70;;;;;;;2.57;78.73;97641.22;299417;196;63004;-57
2021/03/23 04:44:17;;;;;;;0.70;0.70;;;;;;;2.48;79.34;97649.78;299395;214;63009;-57
2021/03/23 04:49:19;;;;;;;0.70;0.70;;;;;;;2.56;78.96;97636.09;299395;258;63005;-56
2021/03/23 04:54:20;;;;;;;0.80;0.80;;;;;;;2.59;78.83;97644.50;299396;225;63008;-57
2021/03/23 04:59:21;;;;;;;0.75;0.75;;;;;;;2.57;78.77;97649.25;299396;213;63004;-57
2021/03/23 05:04:22;;;;;;;0.70;0.70;;;;;;;2.56;79.17;97657.53;299396;216;63009;-57
2021/03/23 05:09:23;;;;;;;0.70;0.70;;;;;;;2.50;79.23;97653.06;299396;290;63009;-57
2021/03/23 05:14:24;;;;;;;0.70;0.70;;;;;;;2.57;78.77;97659.97;299396;207;63009;-57
2021/03/23 05:19:25;;;;;;;0.70;0.70;;;;;;;2.85;77.31;97666.66;299396;199;63005;-57
2021/03/23 05:24:26;;;;;;;0.70;0.70;;;;;;;2.60;78.12;97662.22;299396;214;63008;-57
2021/03/23 05:29:26;;;;;;;0.70;0.70;;;;;;;2.68;77.78;97667.28;299396;265;63004;-57
2021/03/23 05:34:27;;;;;;;0.70;0.70;;;;;;;2.64;78.16;97666.09;299397;225;63009;-58
2021/03/23 05:39:28;;;;;;;0.70;0.70;;;;;;;2.61;78.58;97663.84;299397;216;63008;-58
2021/03/23 05:44:49;;;;;;;0.70;0.70;;;;;;;2.59;78.86;97679.34;299396;240;63009;-57
2021/03/23 05:50:23;;;;;;;0.70;0.70;;;;;;;2.55;78.94;97672.78;299396;197;63005;-53
2021/03/23 05:55:41;;;;;;;0.70;0.70;;;;;;;2.59;79.00;97683.87;299396;204;63009;-58
2021/03/23 06:00:52;;;;;;;0.70;0.70;;;;;;;2.62;79.32;97684.25;299396;218;63004;-58
2021/03/23 06:06:16;;;;;;;0.70;0.70;;;;;;;2.60;79.05;97686.34;299396;259;63009;-59
2021/03/23 06:12:03;;;;;;;0.70;0.70;;;;;;;2.86;77.67;97689.75;299396;214;63005;-57
2021/03/23 06:17:31;;;;;;;0.70;0.70;;;;;;;2.93;77.03;97693.16;299396;210;63009;-57
2021/03/23 06:23:11;;;;;;;0.70;0.70;;;;;;;2.96;77.21;97700.78;299396;282;63004;-57
2021/03/23 06:28:53;;;;;;;0.70;0.70;;;;;;;2.95;77.42;97709.84;299396;212;63005;-58
2021/03/23 06:33:55;;;;;;;0.70;0.70;;;;;;;2.89;77.42;97710.75;299397;196;63009;-57
2021/03/23 06:38:57;;;;;;;0.70;0.70;;;;;;;2.92;77.67;97723.69;299395;254;63004;-53
2021/03/23 06:44:32;;;;;;;0.70;0.70;;;;;;;2.95;77.37;97720.56;299395;264;63009;-60
2021/03/23 06:49:38;;;;;;;0.70;0.70;;;;;;;2.91;77.96;97722.06;299395;222;63005;-59
2021/03/23 06:54:41;;;;;;;0.70;0.70;;;;;;;3.08;76.92;97720.44;299395;218;63009;-57
2021/03/23 07:00:16;;;;;;;0.70;0.70;;;;;;;3.31;76.17;97730.44;299395;216;63004;-58
2021/03/23 07:05:38;;;;;;;0.70;0.70;;;;;;;3.47;74.79;97723.63;299377;224;125009;-58
2021/03/23 07:10:57;;;;;;;0.70;0.70;;;;;;;3.36;75.14;97734.09;299394;326;64009;-59
2021/03/23 07:16:28;;;;;;;0.70;0.70;;;;;;;3.36;75.90;97733.28;299395;320;63008;-57
2021/03/23 07:21:40;;;;;;;0.70;0.70;;;;;;;3.45;75.87;97741.84;299395;338;63004;-58
2021/03/23 07:27:17;;;;;;;0.70;0.70;;;;;;;3.46;75.61;97744.28;299395;278;63009;-53
2021/03/23 07:32:42;;;;;;;0.70;0.70;;;;;;;3.55;75.33;97747.47;299395;276;63005;-57
2021/03/23 07:38:12;;;;;;;0.70;0.70;;;;;;;3.48;75.77;97746.72;299439;267;63008;-54
2021/03/23 07:43:50;;;;;;;0.70;0.70;;;;;;;3.54;75.41;97757.38;299395;202;63004;-58
2021/03/23 07:49:24;;;;;;;0.70;0.70;;;;;;;3.64;75.69;97756.84;299395;214;63005;-58
2021/03/23 07:54:38;;;;;;;0.70;0.70;;;;;;;3.76;75.00;97764.94;299395;257;63009;-58
2021/03/23 08:00:13;;;;;;;0.70;0.70;;;;;;;3.78;75.24;97763.66;299395;213;63004;-58
2021/03/23 08:05:52;;;;;;;0.70;0.70;;;;;;;4.11;72.98;97762.38;299395;328;63009;-58
2021/03/23 08:11:21;;;;;;;0.70;0.70;;;;;;;3.89;74.42;97770.94;299395;362;63016;-57
2021/03/23 08:17:12;;;;;;;0.70;0.70;;;;;;;4.07;73.79;97766.56;299395;200;63009;-58
2021/03/23 08:22:58;;;;;;;0.70;0.70;;;;;;;4.21;74.15;97767.97;299395;252;63000;-57
2021/03/23 08:28:50;;;;;;;0.80;0.80;;;;;;;4.53;72.07;97773.84;299417;283;63009;-57
2021/03/23 08:34:32;;;;;;;0.70;0.70;;;;;;;4.39;71.74;97770.59;299395;330;63005;-57
2021/03/23 08:40:16;;;;;;;0.70;0.70;;;;;;;4.56;71.02;97776.06;299395;308;63009;-57
2021/03/23 08:45:35;;;;;;;0.70;0.70;;;;;;;4.48;71.84;97769.19;299395;240;63004;-58
2021/03/23 08:50:40;;;;;;;0.70;0.70;;;;;;;4.69;71.87;97775.84;299395;233;63009;-59
2021/03/23 08:55:45;;;;;;;0.70;0.70;;;;;;;4.78;72.17;97789.78;299417;262;63005;-57
2021/03/23 09:00:53;;;;;;;0.70;0.70;;;;;;;4.90;70.12;97782.50;299395;216;63009;-59
2021/03/23 09:06:03;;;;;;;0.70;0.70;;;;;;;5.17;69.10;97783.66;299395;260;63004;-58
2021/03/23 09:11:40;;;;;;;0.80;0.80;;;;;;;5.33;65.59;97787.47;299395;223;63009;-58
2021/03/23 09:17:12;;;;;;;0.70;0.70;;;;;;;5.22;66.91;97789.13;299395;260;63005;-58
2021/03/23 09:22:27;;;;;;;0.70;0.70;;;;;;;5.44;64.38;97783.13;299395;198;63009;-58
2021/03/23 09:27:57;;;;;;;0.70;0.70;;;;;;;5.40;65.41;97785.47;299417;199;63004;-58
2021/03/23 09:33:36;;;;;;;0.70;0.70;;;;;;;5.46;63.80;97779.16;299395;202;63009;-58
2021/03/23 09:38:42;;;;;;;0.80;0.80;;;;;;;5.64;62.84;97772.75;299395;209;63009;-58
2021/03/23 09:43:44;;;;;;;0.80;0.80;;;;;;;5.63;61.18;97754.97;299395;209;63004;-58
2021/03/23 09:49:31;;;;;;;0.70;0.70;;;;;;;5.94;61.72;97767.16;299395;227;63009;-58
2021/03/23 09:54:37;;;;;;;0.70;0.70;;;;;;;6.14;59.87;97755.94;299417;248;63005;-60
2021/03/23 09:59:51;;;;;;;0.70;0.70;;;;;;;6.03;59.14;97744.97;299395;204;63008;-58
2021/03/23 10:04:52;;;;;;;0.70;0.70;;;;;;;5.84;57.28;97745.41;299395;242;63004;-58
2021/03/23 10:09:54;;;;;;;0.70;0.70;;;;;;;5.75;59.35;97747.66;299395;216;63009;-58
2021/03/23 10:14:55;;;;;;;0.70;0.70;;;;;;;5.60;60.56;97750.88;299395;214;63004;-57
2021/03/23 10:19:58;;;;;;;0.70;0.70;;;;;;;5.66;58.90;97743.72;299395;196;63020;-58
2021/03/23 10:25:01;;;;;;;0.70;0.70;;;;;;;5.45;60.73;97747.91;299395;297;63005;-58
2021/03/23 10:30:43;;;;;;;0.70;0.70;;;;;;;5.56;59.71;97748.91;299395;196;63008;-58
2021/03/23 10:36:08;;;;;;;0.70;0.70;;;;;;;5.51;60.19;97744.28;299395;210;63004;-59
2021/03/23 10:41:39;;;;;;;0.70;0.70;;;;;;;5.60;57.14;97728.53;299417;200;63009;-58
2021/03/23 10:46:43;;;;;;;0.70;0.70;;;;;;;5.60;56.42;97733.91;299395;284;63005;-59
2021/03/23 10:51:48;;;;;;;0.70;0.70;;;;;;;5.48;57.35;97733.16;299395;228;63008;-58
2021/03/23 10:56:52;;;;;;;0.75;0.75;;;;;;;5.59;56.22;97741.16;299417;278;63004;-57
2021/03/23 11:02:09;;;;;;;0.70;0.70;;;;;;;5.34;57.59;97738.81;299417;241;63009;-57
2021/03/23 11:07:24;;;;;;;0.70;0.70;;;;;;;5.58;57.35;97736.84;299395;287;63005;-58
2021/03/23 11:12:27;;;;;;;0.70;0.70;;;;;;;5.58;57.34;97734.16;299417;202;63009;-58
2021/03/23 11:17:29;;;;;;;0.70;0.70;;;;;;;5.70;56.34;97734.09;299395;244;63012;-58
2021/03/23 11:22:34;;;;;;;0.70;0.70;;;;;;;5.66;56.69;97739.16;299395;198;63009;-59
2021/03/23 11:27:34;;;;;;;0.70;0.70;;;;;;;5.83;55.39;97728.44;299417;202;63004;-62
2021/03/23 11:32:35;;;;;;;0.70;0.70;;;;;;;5.45;56.83;97730.94;299395;220;63009;-58
2021/03/23 11:37:37;;;;;;;0.70;0.70;;;;;;;5.65;57.01;97734.81;299395;226;63005;-58
2021/03/23 11:42:47;;;;;;;0.70;0.70;;;;;;;5.64;57.11;97729.69;299395;198;63009;-58
2021/03/23 11:48:02;;;;;;;0.60;0.60;;;;;;;5.90;56.87;97729.09;299395;244;63005;-60
2021/03/23 11:53:04;;;;;;;0.60;0.60;;;;;;;5.85;55.84;97731.72;299395;216;63009;-58
2021/03/23 11:58:07;;;;;;;0.62;0.62;;;;;;;5.85;55.64;97726.31;299395;208;63004;-58
2021/03/23 12:03:11;;;;;;;0.70;0.70;;;;;;;5.67;57.00;97723.81;299395;258;63009;-58
2021/03/23 12:09:03;;;;;;;0.70;0.70;;;;;;;5.60;56.47;97717.75;299417;208;63005;-58
2021/03/23 12:14:49;;;;;;;0.70;0.70;;;;;;;5.74;57.12;97724.50;299395;202;63008;-57
2021/03/23 12:20:00;;;;;;;0.70;0.70;;;;;;;5.80;57.35;97739.69;299395;208;63004;-58
2021/03/23 12:25:04;;;;;;;0.70;0.70;;;;;;;5.85;58.06;97731.72;299395;240;63009;-58
2021/03/23 12:30:07;;;;;;;0.70;0.70;;;;;;;5.96;57.28;97725.44;299416;283;64009;-59
2021/03/23 12:35:12;;;;;;;0.65;0.65;;;;;;;6.05;57.25;97728.56;299373;250;63009;-59
2021/03/23 12:40:17;;;;;;;0.70;0.70;;;;;;;5.89;57.02;97716.69;299395;222;63005;-57
2021/03/23 12:45:24;;;;;;;;;;;;;;;5.85;57.46;97712.03;299996;982;6005;-58
2021/03/23 12:50:26;;;;;;;0.70;0.70;;;;;;;6.03;57.68;97715.34;299400;220;63008;-59
2021/03/23 12:55:30;;;;;;;0.70;0.70;;;;;;;6.16;56.50;97711.53;299395;214;63004;-59
2021/03/23 13:00:37;;;;;;;0.70;0.70;;;;;;;5.96;57.66;97711.97;299417;227;63009;-58
2021/03/23 13:05:38;;;;;;;0.70;0.70;;;;;;;6.01;57.60;97708.56;299395;243;63004;-58
2021/03/23 13:10:44;;;;;;;0.65;0.65;;;;;;;6.08;56.69;97692.25;299395;229;63009;-59
2021/03/23 13:15:46;;;;;;;0.60;0.60;;;;;;;5.85;57.83;97694.00;299395;245;63005;-58
2021/03/23 13:20:47;;;;;;;0.62;0.62;;;;;;;5.81;57.63;97692.84;299395;214;63008;-58
2021/03/23 13:25:54;;;;;;;0.70;0.70;;;;;;;5.86;57.59;97695.62;299395;311;63004;-58
2021/03/23 13:30:55;;;;;;;0.70;0.70;;;;;;;5.73;58.52;97688.66;299395;214;63009;-58
2021/03/23 13:35:57;;;;;;;0.60;0.60;;;;;;;5.97;57.40;97681.28;299395;207;63004;-59
2021/03/23 13:40:57;;;;;;;0.70;0.70;;;;;;;6.03;56.26;97688.41;299395;238;63009;-58
2021/03/23 13:46:08;;;;;;;0.65;0.65;;;;;;;6.03;56.59;97698.38;299395;271;63000;-53
2021/03/23 13:51:13;;;;;;;0.68;0.68;;;;;;;5.98;56.86;97693.69;299395;201;63008;-58
2021/03/23 13:56:14;;;;;;;0.70;0.70;;;;;;;6.02;56.80;97678.69;299395;196;63004;-57
2021/03/23 14:01:15;;;;;;;0.70;0.70;;;;;;;6.08;56.12;97679.59;299395;210;63005;-58
2021/03/23 14:06:23;;;;;;;0.70;0.70;;;;;;;6.07;56.79;97669.06;299395;207;63005;-58
2021/03/23 14:11:25;;;;;;;0.70;0.70;;;;;;;6.08;56.57;97676.09;299395;234;63009;-58
2021/03/23 14:16:28;;;;;;;0.70;0.70;;;;;;;6.06;57.08;97668.25;299395;227;63005;-54
2021/03/23 14:21:29;;;;;;;0.70;0.70;;;;;;;6.19;55.83;97659.03;299395;202;63009;-58
2021/03/23 14:26:33;;;;;;;0.70;0.70;;;;;;;6.10;56.80;97668.56;299395;239;63004;-58
2021/03/23 14:31:34;;;;;;;0.70;0.70;;;;;;;6.08;58.52;97659.91;299417;208;63009;-54
2021/03/23 14:36:37;;;;;;;0.60;0.60;;;;;;;6.18;56.84;97658.22;299395;240;63005;-57
2021/03/23 14:41:45;;;;;;;0.70;0.70;;;;;;;6.03;57.04;97653.37;299395;240;63009;-58
2021/03/23 14:46:47;;;;;;;0.60;0.60;;;;;;;6.13;57.99;97652.72;299395;214;63005;-53
2021/03/23 14:51:51;;;;;;;0.60;0.60;;;;;;;6.27;56.98;97643.22;299395;366;63009;-54
2021/03/23 14:56:55;;;;;;;0.60;0.60;;;;;;;6.28;56.61;97644.03;299417;222;63004;-58
2021/03/23 15:01:56;;;;;;;0.70;0.70;;;;;;;6.43;55.38;97636.19;299439;223;63019;-58
2021/03/23 15:06:57;;;;;;;0.70;0.70;;;;;;;6.43;55.79;97638.91;299395;222;63005;-59
2021/03/23 15:11:59;;;;;;;0.70;0.70;;;;;;;6.29;56.73;97640.28;299395;217;63009;-58
2021/03/23 15:17:02;;;;;;;0.60;0.60;;;;;;;6.35;56.11;97639.31;299395;207;63005;-59
2021/03/23 15:22:04;;;;;;;0.60;0.60;;;;;;;6.19;56.59;97643.66;299395;211;63009;-58
2021/03/23 15:27:07;;;;;;;0.70;0.70;;;;;;;6.34;55.65;97643.88;299395;278;63004;-59
2021/03/23 15:32:08;;;;;;;0.70;0.70;;;;;;;5.95;55.73;97650.28;299395;320;63009;-59
2021/03/23 15:37:24;;;;;;;0.60;0.60;;;;;;;5.66;57.18;97657.56;299395;224;63005;-59
2021/03/23 15:42:26;;;;;;;0.60;0.60;;;;;;;5.80;57.76;97656.22;299417;231;63008;-59
2021/03/23 15:47:27;;;;;;;0.70;0.70;;;;;;;5.76;58.19;97654.25;299395;214;63004;-58
2021/03/23 15:52:28;;;;;;;0.70;0.70;;;;;;;5.72;58.27;97661.97;299395;199;63009;-59
2021/03/23 15:57:29;;;;;;;0.60;0.60;;;;;;;5.70;58.81;97661.41;299395;229;63005;-58
2021/03/23 16:02:30;;;;;;;0.60;0.60;;;;;;;5.73;59.10;97663.63;299395;289;63009;-59
2021/03/23 16:07:31;;;;;;;0.70;0.70;;;;;;;5.73;59.37;97659.06;299395;203;63005;-59
2021/03/23 16:12:32;;;;;;;0.70;0.70;;;;;;;5.70;58.58;97650.62;299395;214;63009;-59
2021/03/23 16:17:33;;;;;;;0.70;0.70;;;;;;;5.71;59.75;97645.00;299395;215;63004;-59
2021/03/23 16:22:34;;;;;;;0.70;0.70;;;;;;;5.76;59.91;97657.75;299395;212;63009;-60
2021/03/23 16:27:37;;;;;;;0.70;0.70;;;;;;;5.77;60.36;97664.78;299395;217;63004;-59
2021/03/23 16:32:38;;;;;;;0.70;0.70;;;;;;;5.78;59.62;97661.03;299395;217;63009;-60
2021/03/23 16:37:39;;;;;;;0.60;0.60;;;;;;;5.75;59.85;97661.50;299395;209;63008;-58
2021/03/23 16:42:40;;;;;;;0.70;0.70;;;;;;;5.72;59.34;97659.28;299395;221;63008;-59
2021/03/23 16:47:42;;;;;;;0.70;0.70;;;;;;;5.67;59.74;97661.87;299395;246;63004;-58
2021/03/23 16:52:44;;;;;;;0.70;0.70;;;;;;;5.61;59.78;97668.25;299395;216;63009;-59
2021/03/23 16:57:44;;;;;;;0.60;0.60;;;;;;;5.56;60.08;97676.22;299395;263;63004;-59
2021/03/23 17:02:46;;;;;;;0.70;0.70;;;;;;;5.51;60.90;97682.34;299395;229;63009;-59
2021/03/23 17:07:47;;;;;;;0.70;0.70;;;;;;;5.49;60.75;97683.66;299395;199;63005;-60
2021/03/23 17:12:49;;;;;;;0.70;0.70;;;;;;;5.46;60.79;97690.31;299395;231;63009;-58
2021/03/23 17:17:51;;;;;;;0.70;0.70;;;;;;;5.39;61.74;97701.22;299395;207;63004;-59
2021/03/23 17:22:56;;;;;;;0.60;0.60;;;;;;;5.34;62.19;97698.44;299395;236;63009;-58
2021/03/23 17:27:58;;;;;;;0.70;0.70;;;;;;;5.28;61.62;97693.19;299396;269;63005;-58
2021/03/23 17:32:59;;;;;;;0.70;0.70;;;;;;;5.21;61.84;97682.56;299396;246;63009;-59
2021/03/23 17:38:00;;;;;;;0.60;0.60;;;;;;;5.14;62.96;97687.28;299396;238;63011;-60
2021/03/23 17:43:04;;;;;;;0.70;0.70;;;;;;;5.03;63.38;97694.31;299396;231;63009;-58
2021/03/23 17:48:06;;;;;;;0.70;0.70;;;;;;;4.94;63.05;97698.44;299418;246;63004;-59
2021/03/23 17:53:09;;;;;;;0.70;0.70;;;;;;;4.84;63.69;97698.25;299396;263;63009;-59
2021/03/23 17:58:10;;;;;;;0.70;0.70;;;;;;;4.74;63.85;97700.69;299396;226;63005;-59
2021/03/23 18:03:17;;;;;;;0.70;0.70;;;;;;;4.59;65.06;97701.16;299396;198;63009;-59
2021/03/23 18:08:19;;;;;;;0.70;0.70;;;;;;;4.51;65.28;97714.13;299397;244;63004;-59
2021/03/23 18:13:23;;;;;;;0.70;0.70;;;;;;;4.40;65.43;97704.22;299397;200;63009;-60
2021/03/23 18:18:25;;;;;;;3.33;3.05;;;;;;;4.29;65.09;97716.59;299418;221;63004;-58
2021/03/23 18:23:26;;;;;;;0.70;0.70;;;;;;;4.20;66.02;97712.59;299395;266;64013;-58
2021/03/23 18:28:27;;;;;;;0.70;0.70;;;;;;;4.11;66.17;97714.03;299396;301;63005;-58
2021/03/23 18:33:28;;;;;;;0.70;0.70;;;;;;;4.01;66.24;97704.66;299396;233;63008;-58
2021/03/23 18:38:29;;;;;;;0.70;0.70;;;;;;;3.93;66.28;97715.72;299396;226;63004;-57
2021/03/23 18:43:30;;;;;;;0.70;0.70;;;;;;;3.84;66.54;97725.16;299396;196;63009;-58
2021/03/23 18:48:32;;;;;;;0.70;0.70;;;;;;;3.72;67.05;97726.19;299396;240;63004;-58
2021/03/23 18:53:33;;;;;;;0.70;0.70;;;;;;;3.65;67.31;97719.03;299396;210;63009;-58
2021/03/23 18:58:35;;;;;;;0.70;0.70;;;;;;;3.66;66.64;97725.22;299396;232;63005;-58
2021/03/23 19:03:36;;;;;;;0.70;0.70;;;;;;;3.65;67.06;97726.28;299397;335;63008;-58
2021/03/23 19:08:37;;;;;;;0.80;0.80;;;;;;;3.57;67.18;97731.94;299397;317;63004;-58
2021/03/23 19:13:38;;;;;;;0.70;0.70;;;;;;;3.55;66.98;97731.34;299394;279;63009;-58
2021/03/23 19:18:41;;;;;;;0.70;0.70;;;;;;;3.53;66.99;97726.22;299395;219;63004;-58
2021/03/23 19:23:42;;;;;;;0.80;0.80;;;;;;;3.52;67.58;97738.00;299395;286;63009;-51
2021/03/23 19:28:43;;;;;;;0.70;0.70;;;;;;;3.54;66.18;97724.34;299395;215;63005;-53
2021/03/23 19:33:44;;;;;;;0.70;0.70;;;;;;;3.57;66.30;97729.28;299395;196;63008;-53
2021/03/23 19:38:45;;;;;;;0.80;0.80;;;;;;;3.54;65.92;97725.19;299395;329;63004;-59
2021/03/23 19:43:48;;;;;;;0.80;0.80;;;;;;;3.48;66.70;97733.31;299395;256;63019;-59
2021/03/23 19:48:50;;;;;;;0.70;0.70;;;;;;;3.46;66.40;97732.75;299395;332;63004;-58
2021/03/23 19:53:53;;;;;;;0.70;0.70;;;;;;;3.41;66.76;97733.41;299395;350;63009;-57
2021/03/23 19:58:54;;;;;;;0.70;0.70;;;;;;;3.37;66.54;97734.91;299395;277;63005;-59
2021/03/23 20:03:57;;;;;;;0.70;0.70;;;;;;;3.36;66.38;97738.66;299395;270;63008;-58
2021/03/23 20:08:58;;;;;;;0.80;0.80;;;;;;;3.31;66.84;97731.28;299395;267;63004;-58
2021/03/23 20:14:00;;;;;;;0.70;0.70;;;;;;;3.29;67.32;97738.72;299395;360;63009;-53
2021/03/23 20:19:02;;;;;;;0.80;0.80;;;;;;;3.27;66.99;97735.44;299395;292;63010;-57
2021/03/23 20:24:07;;;;;;;0.70;0.70;;;;;;;3.29;67.51;97733.34;299395;309;63009;-57
2021/03/23 20:29:09;;;;;;;0.80;0.80;;;;;;;3.29;66.98;97733.34;299395;200;63005;-57
2021/03/23 20:34:11;;;;;;;0.70;0.70;;;;;;;3.26;67.55;97724.94;299395;219;63018;-57
2021/03/23 20:39:12;;;;;;;0.70;0.70;;;;;;;3.23;67.72;97722.72;299395;215;63004;-52
2021/03/23 20:44:13;;;;;;;0.70;0.70;;;;;;;3.19;68.46;97725.03;299395;306;63009;-53
2021/03/23 20:49:17;;;;;;;0.70;0.70;;;;;;;3.19;68.34;97722.34;299395;207;63005;-57
2021/03/23 20:54:18;;;;;;;0.70;0.70;;;;;;;3.08;69.41;97719.63;299417;247;63009;-57
2021/03/23 20:59:19;;;;;;;0.70;0.70;;;;;;;3.01;70.17;97731.22;299395;342;63013;-58
2021/03/23 21:04:20;;;;;;;0.70;0.70;;;;;;;3.01;69.80;97739.28;299395;284;63009;-56
2021/03/23 21:09:21;;;;;;;0.80;0.80;;;;;;;2.96;70.61;97754.38;299395;245;63004;-57
2021/03/23 21:14:22;;;;;;;0.70;0.70;;;;;;;2.84;71.38;97748.12;299395;207;63009;-57
2021/03/23 21:19:23;;;;;;;0.70;0.70;;;;;;;2.73;71.86;97738.16;299395;203;63005;-58
2021/03/23 21:24:25;;;;;;;0.80;0.80;;;;;;;2.64;72.29;97751.84;299395;347;63009;-57
2021/03/23 21:29:26;;;;;;;0.80;0.80;;;;;;;2.63;72.43;97750.19;299395;225;63005;-57
2021/03/23 21:34:27;;;;;;;0.70;0.70;;;;;;;2.69;72.24;97737.78;299395;213;63009;-57
2021/03/23 21:39:29;;;;;;;0.70;0.70;;;;;;;2.76;72.08;97730.50;299395;306;63004;-57
2021/03/23 21:44:33;;;;;;;0.70;0.70;;;;;;;2.88;71.24;97743.94;299395;216;63009;-57
2021/03/23 21:49:34;;;;;;;0.80;0.80;;;;;;;3.00;70.03;97734.12;299417;243;63005;-58
2021/03/23 21:54:35;;;;;;;0.80;0.80;;;;;;;3.05;69.93;97731.59;299395;202;63009;-58
2021/03/23 21:59:36;;;;;;;0.70;0.70;;;;;;;3.02;69.59;97724.00;299395;296;63005;-57
2021/03/23 22:04:37;;;;;;;0.80;0.80;;;;;;;2.91;70.26;97730.09;299395;211;63009;-57
2021/03/23 22:09:40;;;;;;;0.70;0.70;;;;;;;2.78;70.39;97731.06;299395;330;63004;-57
2021/03/23 22:14:41;;;;;;;0.70;0.70;;;;;;;2.72;70.73;97731.97;299395;221;63009;-58
2021/03/23 22:19:42;;;;;;;0.70;0.70;;;;;;;2.65;70.89;97721.31;299395;221;63005;-58
2021/03/23 22:24:42;;;;;;;0.80;0.80;;;;;;;2.62;71.01;97721.75;299395;214;63017;-61
2021/03/23 22:29:43;;;;;;;0.80;0.80;;;;;;;2.56;71.41;97721.81;299395;218;63004;-58
2021/03/23 22:34:44;;;;;;;0.70;0.70;;;;;;;2.50;71.40;97723.53;299395;289;63009;-59
2021/03/23 22:39:45;;;;;;;0.80;0.80;;;;;;;2.44;71.77;97719.03;299395;214;63004;-58
2021/03/23 22:44:46;;;;;;;0.80;0.80;;;;;;;2.44;71.87;97713.69;299395;245;63009;-58
2021/03/23 22:49:47;;;;;;;0.70;0.70;;;;;;;2.44;71.83;97715.53;299395;208;63005;-57
2021/03/23 22:54:48;;;;;;;0.70;0.70;;;;;;;2.45;71.66;97715.31;299395;207;63008;-58
2021/03/23 22:59:49;;;;;;;0.80;0.80;;;;;;;2.45;71.35;97712.66;299395;340;63004;-58
2021/03/23 23:04:50;;;;;;;0.80;0.80;;;;;;;2.43;71.68;97703.19;299395;215;63009;-58
2021/03/23 23:09:51;;;;;;;0.80;0.80;;;;;;;2.42;71.84;97712.28;299395;225;63004;-58
2021/03/23 23:14:52;;;;;;;0.80;0.80;;;;;;;2.47;71.06;97710.56;299395;222;63009;-58
2021/03/23 23:19:54;;;;;;;0.80;0.80;;;;;;;2.59;69.41;97714.16;299395;302;63005;-58
2021/03/23 23:24:55;;;;;;;0.90;0.90;;;;;;;2.54;69.58;97707.81;299395;233;63009;-57
2021/03/23 23:29:56;;;;;;;0.80;0.80;;;;;;;2.48;69.62;97704.16;299395;196;63004;-59
2021/03/23 23:34:57;;;;;;;0.80;0.80;;;;;;;2.42;69.60;97710.44;299395;196;63018;-58
2021/03/23 23:39:58;;;;;;;0.80;0.80;;;;;;;2.31;70.19;97705.78;299395;261;63005;-58
2021/03/23 23:44:59;;;;;;;0.80;0.80;;;;;;;2.24;70.09;97707.72;299395;221;63009;-58
2021/03/23 23:50:00;;;;;;;0.80;0.80;;;;;;;2.15;70.75;97709.84;299395;267;63022;-58
2021/03/23 23:55:02;;;;;;;0.80;0.80;;;;;;;2.01;71.35;97719.84;299395;215;63027;-57
